Time;durP1;ratioP1;P1;durP2;ratioP2;P2;SDS_P1;SDS_P2;PMS_P1;PMS_P2;Temp;Humidity;BMP_temperature;BMP_pressure;BME280_temperature;BME280_humidity;BME280_pressure;Samples;Min_cycle;Max_cycle;Signal;HPM_P1;HPM_P2
2023/07/01 00:02:27;;;;;;;15.30;13.40;;;;;;;18.97;77.22;99231.30;103346;1254;138669;-65
2023/07/01 00:04:54;;;;;;;15.30;13.70;;;;;;;18.96;77.41;99234.25;103275;1256;97785;-66
2023/07/01 00:07:22;;;;;;;18.40;14.00;;;;;;;18.98;77.51;99234.45;103325;1258;139760;-66
2023/07/01 00:09:49;;;;;;;16.10;14.10;;;;;;;18.98;77.55;99238.83;103195;1255;97803;-66
2023/07/01 00:12:16;;;;;;;16.60;14.90;;;;;;;18.98;77.59;99235.88;103201;1260;112326;-66
2023/07/01 00:14:42;;;;;;;19.00;15.10;;;;;;;18.97;77.66;99233.42;103078;1255;138466;-66
2023/07/01 00:17:12;;;;;;;17.10;15.10;;;;;;;18.98;77.71;99233.20;103160;1255;97806;-66
2023/07/01 00:19:39;;;;;;;15.90;14.00;;;;;;;18.98;77.86;99231.80;103072;1254;138534;-66
2023/07/01 00:22:07;;;;;;;20.00;15.40;;;;;;;18.98;77.85;99230.92;103185;1254;97870;-66
2023/07/01 00:24:34;;;;;;;17.40;14.30;;;;;;;18.95;77.93;99232.77;103706;1254;138841;-66
2023/07/01 00:27:01;;;;;;;24.80;15.80;;;;;;;18.90;78.10;99229.48;103183;1254;108344;-65
2023/07/01 00:29:29;;;;;;;18.60;14.90;;;;;;;18.88;78.15;99229.98;103314;1260;97771;-65
2023/07/01 00:31:57;;;;;;;15.70;14.00;;;;;;;18.89;78.17;99229.92;102931;1254;138613;-66
2023/07/01 00:34:24;;;;;;;17.60;14.00;;;;;;;18.88;78.02;99231.77;103252;1254;97784;-66
2023/07/01 00:36:51;;;;;;;20.00;15.70;;;;;;;18.87;78.26;99232.21;103199;1254;139120;-66
2023/07/01 00:39:18;;;;;;;16.10;14.40;;;;;;;18.88;78.40;99230.50;103256;1261;107679;-66
2023/07/01 00:41:51;;;;;;;20.20;16.10;;;;;;;18.87;78.51;99230.79;103294;1254;99524;-66
2023/07/01 00:44:19;;;;;;;19.60;14.20;;;;;;;18.86;78.51;99230.20;103204;1260;138462;-66
2023/07/01 00:46:46;;;;;;;18.90;15.70;;;;;;;18.85;78.49;99228.14;103290;1255;97796;-66
2023/07/01 00:49:13;;;;;;;16.20;14.20;;;;;;;18.88;78.66;99230.52;103198;1254;138473;-66
2023/07/01 00:51:40;;;;;;;16.20;14.10;;;;;;;18.85;78.43;99230.39;103194;1254;107374;-66
2023/07/01 00:54:08;;;;;;;23.50;16.60;;;;;;;18.85;78.26;99230.59;103292;1257;97674;-66
2023/07/01 00:56:35;;;;;;;17.20;13.60;;;;;;;18.90;78.50;99232.98;103186;1254;138514;-66
2023/07/01 00:59:02;;;;;;;15.80;13.60;;;;;;;18.95;78.28;99234.85;103217;1255;97900;-67
2023/07/01 01:01:35;;;;;;;16.00;13.00;;;;;;;18.95;78.10;99231.20;103232;1254;138526;-66
2023/07/01 01:04:09;;;;;;;19.60;14.40;;;;;;;18.96;77.92;99227.68;103305;1260;108493;-65
2023/07/01 01:06:43;;;;;;;15.00;13.10;;;;;;;18.95;77.77;99225.14;103221;1254;138961;-65
2023/07/01 01:09:17;;;;;;;14.80;12.20;;;;;;;18.92;77.73;99223.46;103294;1254;107944;-65
2023/07/01 01:11:47;;;;;;;13.30;12.10;;;;;;;18.86;77.70;99218.86;103273;1254;97917;-66
2023/07/01 01:14:17;;;;;;;16.50;12.60;;;;;;;18.84;77.76;99215.00;103204;1254;138712;-66
2023/07/01 01:16:47;;;;;;;16.70;12.70;;;;;;;18.82;77.84;99216.02;103243;1255;107937;-66
2023/07/01 01:19:22;;;;;;;13.80;12.30;;;;;;;18.79;77.88;99214.73;103235;1257;138785;-66
2023/07/01 01:21:56;;;;;;;14.00;12.40;;;;;;;18.76;78.08;99213.25;103468;1255;108221;-66
2023/07/01 01:24:25;;;;;;;16.80;13.00;;;;;;;18.71;78.11;99209.70;103489;1259;97796;-66
2023/07/01 01:26:58;;;;;;;14.10;12.60;;;;;;;18.69;78.42;99211.29;103286;1255;111833;-67
2023/07/01 01:29:25;;;;;;;15.20;12.80;;;;;;;18.67;78.46;99210.73;103169;1255;111030;-64
2023/07/01 01:31:52;;;;;;;17.20;13.40;;;;;;;18.66;78.68;99212.07;103151;1255;138677;-65
2023/07/01 01:34:20;;;;;;;14.40;12.70;;;;;;;18.64;78.87;99213.06;103232;1254;108277;-65
2023/07/01 01:36:52;;;;;;;18.50;12.70;;;;;;;18.63;79.04;99210.69;103317;1261;138957;-66
2023/07/01 01:39:25;;;;;;;15.10;13.50;;;;;;;18.60;79.14;99212.84;103356;1254;111040;-66
2023/07/01 01:41:57;;;;;;;16.60;13.40;;;;;;;18.60;79.21;99210.10;103237;1258;107397;-66
2023/07/01 01:44:30;;;;;;;15.00;13.50;;;;;;;18.59;79.40;99213.35;103277;1254;138772;-66
2023/07/01 01:46:59;;;;;;;16.50;13.70;;;;;;;18.58;79.57;99212.88;103295;1256;108156;-66
2023/07/01 01:49:27;;;;;;;15.60;13.70;;;;;;;18.57;79.65;99208.75;103687;1255;138625;-66
2023/07/01 01:51:56;;;;;;;14.90;13.50;;;;;;;18.55;79.74;99210.31;103304;1255;111819;-66
2023/07/01 01:54:24;;;;;;;15.70;13.30;;;;;;;18.54;79.92;99213.51;103183;1255;108096;-66
2023/07/01 01:56:52;;;;;;;17.40;14.50;;;;;;;18.51;80.11;99211.89;103182;1255;98301;-66
2023/07/01 01:59:20;;;;;;;16.90;14.50;;;;;;;18.52;80.29;99215.10;103156;1260;107513;-66
2023/07/01 02:01:49;;;;;;;18.60;14.60;;;;;;;18.55;80.22;99214.04;103117;1255;138917;-66
2023/07/01 02:04:16;;;;;;;18.50;14.50;;;;;;;18.54;80.35;99215.81;103181;1255;111029;-66
2023/07/01 02:06:44;;;;;;;17.50;14.20;;;;;;;18.55;80.36;99212.23;103074;1254;138866;-66
2023/07/01 02:09:11;;;;;;;18.10;13.90;;;;;;;18.55;80.53;99217.35;103285;1254;97676;-66
2023/07/01 02:11:38;;;;;;;15.80;14.20;;;;;;;18.54;80.53;99215.87;103187;1254;108384;-66
2023/07/01 02:14:05;;;;;;;16.50;14.80;;;;;;;18.56;80.87;99215.02;103886;1254;139587;-67
2023/07/01 02:16:36;;;;;;;19.50;15.50;;;;;;;18.58;80.82;99216.25;103128;1255;112564;-66
2023/07/01 02:19:04;;;;;;;17.30;15.40;;;;;;;18.58;80.86;99212.17;103032;1260;139215;-66
2023/07/01 02:21:31;;;;;;;17.20;15.40;;;;;;;18.60;80.84;99217.63;103272;1255;98392;-66
2023/07/01 02:23:59;;;;;;;18.40;15.30;;;;;;;18.59;80.98;99214.52;103086;1259;109318;-66
2023/07/01 02:26:26;;;;;;;17.20;15.40;;;;;;;18.60;81.14;99212.91;103034;1255;138895;-66
2023/07/01 02:28:54;;;;;;;17.80;14.50;;;;;;;18.57;81.24;99211.17;103154;1260;111729;-65
2023/07/01 02:31:22;;;;;;;19.40;16.10;;;;;;;18.58;81.44;99208.12;102988;1256;138828;-66
2023/07/01 02:33:50;;;;;;;17.40;15.40;;;;;;;18.59;81.52;99208.26;103177;1254;97905;-65
2023/07/01 02:36:17;;;;;;;18.80;15.60;;;;;;;18.59;81.67;99203.65;103161;1256;109210;-65
2023/07/01 02:38:44;;;;;;;19.40;15.10;;;;;;;18.59;81.68;99201.37;103089;1260;138741;-65
2023/07/01 02:41:11;;;;;;;17.60;15.60;;;;;;;18.60;81.83;99200.73;103212;1255;111757;-65
2023/07/01 02:43:38;;;;;;;17.80;15.90;;;;;;;18.58;81.93;99196.30;103126;1256;138704;-65
2023/07/01 02:46:05;;;;;;;18.40;16.50;;;;;;;18.58;82.03;99192.27;103342;1254;98433;-66
2023/07/01 02:48:32;;;;;;;20.00;16.00;;;;;;;18.60;82.09;99192.27;103257;1254;139468;-66
2023/07/01 02:50:59;;;;;;;19.70;16.10;;;;;;;18.61;82.11;99194.65;103296;1256;97772;-66
2023/07/01 02:53:26;;;;;;;22.50;16.70;;;;;;;18.61;82.30;99195.88;103265;1255;111790;-66
2023/07/01 02:55:54;;;;;;;18.00;16.10;;;;;;;18.61;82.41;99198.19;103023;1255;138686;-66
2023/07/01 02:58:22;;;;;;;21.40;17.60;;;;;;;18.62;82.50;99196.72;103234;1256;97782;-66
2023/07/01 03:00:49;;;;;;;19.30;17.30;;;;;;;18.61;82.59;99195.35;103066;1259;138639;-66
2023/07/01 03:03:17;;;;;;;22.30;17.80;;;;;;;18.61;82.56;99190.77;103300;1255;97793;-66
2023/07/01 03:05:45;;;;;;;20.90;17.20;;;;;;;18.61;82.61;99187.27;103497;1254;110827;-66
2023/07/01 03:08:12;;;;;;;20.50;18.40;;;;;;;18.62;82.76;99185.79;103227;1256;138986;-66
2023/07/01 03:10:39;;;;;;;22.20;18.60;;;;;;;18.63;82.84;99189.23;103397;1257;97772;-66
2023/07/01 03:13:07;;;;;;;22.20;18.30;;;;;;;18.63;82.81;99187.95;103226;1253;139532;-66
2023/07/01 03:15:34;;;;;;;23.10;19.00;;;;;;;18.64;82.84;99188.27;103232;1256;97791;-66
2023/07/01 03:18:01;;;;;;;23.00;19.50;;;;;;;18.65;82.80;99189.45;103376;1258;111640;-66
2023/07/01 03:20:28;;;;;;;22.40;20.20;;;;;;;18.65;82.91;99183.48;103152;1260;138876;-66
2023/07/01 03:22:57;;;;;;;26.30;19.40;;;;;;;18.66;82.93;99182.30;103349;1256;99670;-66
2023/07/01 03:25:25;;;;;;;22.30;20.00;;;;;;;18.67;83.04;99183.77;103220;1260;138624;-66
2023/07/01 03:27:53;;;;;;;23.80;19.90;;;;;;;18.68;82.97;99179.70;103349;1258;97759;-66
2023/07/01 03:30:22;;;;;;;22.20;19.60;;;;;;;18.68;82.97;99178.81;103347;1255;112762;-66
2023/07/01 03:32:50;;;;;;;25.90;19.90;;;;;;;18.67;83.16;99177.27;103174;1255;138820;-66
2023/07/01 03:35:18;;;;;;;22.10;19.30;;;;;;;18.69;83.17;99182.59;103284;1255;97796;-66
2023/07/01 03:37:46;;;;;;;21.50;19.20;;;;;;;18.69;82.95;99178.57;103125;1255;138562;-66
2023/07/01 03:40:14;;;;;;;22.20;18.70;;;;;;;18.71;83.13;99179.46;103224;1258;98093;-66
2023/07/01 03:42:42;;;;;;;20.40;18.50;;;;;;;18.74;83.07;99179.02;103162;1258;139301;-67
2023/07/01 03:45:12;;;;;;;21.50;17.80;;;;;;;18.77;83.17;99177.88;103344;1255;107687;-67
2023/07/01 03:47:41;;;;;;;20.40;18.20;;;;;;;18.82;83.16;99175.17;103491;1255;98495;-67
2023/07/01 03:50:10;;;;;;;22.90;19.80;;;;;;;18.86;83.09;99175.52;103096;1259;138563;-66
2023/07/01 03:52:38;;;;;;;23.00;18.20;;;;;;;18.90;82.87;99183.52;103316;1259;97756;-67
2023/07/01 03:55:11;;;;;;;21.20;18.80;;;;;;;18.93;82.72;99181.84;103161;1254;138623;-67
2023/07/01 03:57:38;;;;;;;21.40;18.50;;;;;;;18.98;82.76;99183.33;103706;1255;107738;-66
2023/07/01 04:00:17;;;;;;;20.80;18.30;;;;;;;19.04;82.56;99182.86;103339;1255;97878;-67
2023/07/01 04:02:45;;;;;;;21.90;18.60;;;;;;;19.09;82.33;99186.81;103179;1255;138456;-67
2023/07/01 04:05:13;;;;;;;19.90;17.70;;;;;;;19.14;82.13;99187.59;103301;1255;97824;-67
2023/07/01 04:07:42;;;;;;;21.90;19.50;;;;;;;19.19;81.96;99184.20;103189;1254;138454;-67
2023/07/01 04:10:11;;;;;;;20.30;18.30;;;;;;;19.21;81.84;99181.73;103264;1255;107242;-66
2023/07/01 04:12:38;;;;;;;19.40;17.00;;;;;;;19.28;81.61;99180.81;103483;1255;138965;-67
2023/07/01 04:15:09;;;;;;;22.20;17.90;;;;;;;19.35;81.36;99188.16;103294;1261;107609;-67
2023/07/01 04:17:38;;;;;;;20.40;16.40;;;;;;;19.40;81.29;99180.88;103519;1259;97853;-66
2023/07/01 04:20:07;;;;;;;20.50;17.90;;;;;;;19.46;81.28;99179.48;103185;1255;138549;-66
2023/07/01 04:22:34;;;;;;;18.60;16.60;;;;;;;19.50;80.89;99180.31;103334;1255;106995;-66
2023/07/01 04:25:01;;;;;;;19.20;16.90;;;;;;;19.53;80.93;99181.33;103142;1256;139221;-67
2023/07/01 04:27:28;;;;;;;19.10;17.20;;;;;;;19.55;80.67;99188.20;103272;1255;107633;-66
2023/07/01 04:29:55;;;;;;;19.60;17.50;;;;;;;19.57;80.71;99184.48;103303;1255;97861;-66
2023/07/01 04:32:23;;;;;;;23.60;19.00;;;;;;;19.60;80.72;99185.16;103317;1254;138526;-67
2023/07/01 04:34:50;;;;;;;20.60;16.60;;;;;;;19.62;80.41;99183.04;103356;1255;106581;-66
2023/07/01 04:37:17;;;;;;;19.70;17.60;;;;;;;19.63;80.20;99182.61;103174;1254;139021;-64
2023/07/01 04:39:44;;;;;;;21.20;16.20;;;;;;;19.65;80.15;99181.05;103271;1254;108300;-65
2023/07/01 04:42:12;;;;;;;17.60;15.90;;;;;;;19.65;79.96;99186.14;103286;1255;97815;-66
2023/07/01 04:44:39;;;;;;;17.80;15.90;;;;;;;19.65;79.86;99186.65;103250;1255;138502;-66
2023/07/01 04:47:07;;;;;;;18.50;16.10;;;;;;;19.65;79.79;99192.84;103292;1255;107946;-66
2023/07/01 04:49:34;;;;;;;20.30;16.20;;;;;;;19.64;79.69;99188.71;103342;1255;138691;-66
2023/07/01 04:52:01;;;;;;;16.80;14.60;;;;;;;19.60;79.50;99182.89;103282;1255;109005;-66
2023/07/01 04:54:28;;;;;;;18.50;15.40;;;;;;;19.62;79.84;99184.84;103247;1255;97965;-66
2023/07/01 04:56:55;;;;;;;18.10;15.40;;;;;;;19.68;79.91;99182.68;103323;1255;111159;-66
2023/07/01 04:59:23;;;;;;;16.70;14.30;;;;;;;19.75;79.85;99181.21;103306;1255;108477;-66
2023/07/01 05:01:50;;;;;;;18.70;14.40;;;;;;;19.82;79.73;99172.08;103213;1260;139437;-66
2023/07/01 05:04:17;;;;;;;16.50;14.00;;;;;;;19.93;79.42;99183.16;103304;1259;108577;-66
2023/07/01 05:06:44;;;;;;;17.10;14.00;;;;;;;20.01;79.21;99187.02;103171;1255;138976;-66
2023/07/01 05:09:12;;;;;;;15.40;13.70;;;;;;;20.06;78.67;99184.26;103268;1254;111439;-66
2023/07/01 05:11:39;;;;;;;14.00;12.60;;;;;;;20.08;78.24;99184.15;103236;1255;108143;-66
2023/07/01 05:14:06;;;;;;;15.20;13.60;;;;;;;20.12;78.34;99180.73;103220;1260;138768;-67
2023/07/01 05:16:33;;;;;;;15.40;13.40;;;;;;;20.18;77.81;99184.60;103234;1255;108040;-66
2023/07/01 05:19:00;;;;;;;18.10;13.40;;;;;;;20.19;77.51;99182.77;103109;1255;139058;-67
2023/07/01 05:21:28;;;;;;;17.60;13.40;;;;;;;20.21;77.28;99185.09;103163;1260;111420;-66
2023/07/01 05:23:56;;;;;;;14.40;12.30;;;;;;;20.26;77.21;99186.23;103263;1256;106764;-66
2023/07/01 05:26:23;;;;;;;14.30;12.40;;;;;;;20.35;77.10;99189.85;103150;1255;138810;-66
2023/07/01 05:28:50;;;;;;;15.30;13.00;;;;;;;20.40;76.59;99188.99;103240;1255;106878;-67
2023/07/01 05:31:17;;;;;;;19.50;14.40;;;;;;;20.42;76.16;99187.95;103077;1255;140823;-67
2023/07/01 05:33:47;;;;;;;15.60;13.80;;;;;;;20.44;75.97;99189.77;103201;1260;111568;-66
2023/07/01 05:36:14;;;;;;;16.60;13.30;;;;;;;20.43;75.75;99195.15;103248;1255;107270;-66
2023/07/01 05:38:42;;;;;;;15.70;12.80;;;;;;;20.39;75.58;99194.23;103189;1255;139331;-66
2023/07/01 05:41:09;;;;;;;14.60;12.80;;;;;;;20.37;75.59;99199.72;103313;1258;109616;-66
2023/07/01 05:43:36;;;;;;;15.70;12.90;;;;;;;20.37;75.52;99198.84;103071;1258;138694;-66
2023/07/01 05:46:03;;;;;;;14.50;12.40;;;;;;;20.40;75.60;99199.06;103280;1260;111930;-66
2023/07/01 05:48:30;;;;;;;13.10;11.50;;;;;;;20.50;75.68;99199.61;103337;1255;107421;-66
2023/07/01 05:50:57;;;;;;;13.40;11.00;;;;;;;20.59;75.54;99196.17;103242;1255;97799;-66
2023/07/01 05:53:25;;;;;;;14.10;11.80;;;;;;;20.67;75.25;99197.22;103224;1258;107415;-66
2023/07/01 05:55:52;;;;;;;14.00;11.90;;;;;;;20.76;75.01;99202.05;103023;1257;138745;-66
2023/07/01 05:58:18;;;;;;;15.50;12.70;;;;;;;20.83;74.80;99206.85;103196;1255;113095;-66
2023/07/01 06:00:46;;;;;;;14.10;12.10;;;;;;;20.93;74.65;99200.27;103003;1258;138873;-66
2023/07/01 06:03:14;;;;;;;14.40;12.90;;;;;;;21.07;74.53;99201.95;104398;1257;96091;-66
2023/07/01 06:05:41;;;;;;;15.00;12.50;;;;;;;21.21;73.59;99205.48;104433;1258;108123;-66
2023/07/01 06:08:09;;;;;;;14.20;10.70;;;;;;;21.22;73.39;99210.67;104390;1254;138614;-66
2023/07/01 06:10:36;;;;;;;14.40;12.40;;;;;;;21.28;73.32;99214.98;104487;1255;111235;-66
2023/07/01 06:13:03;;;;;;;14.70;12.00;;;;;;;21.25;72.85;99212.95;104333;1256;139621;-66
2023/07/01 06:15:30;;;;;;;15.90;12.80;;;;;;;21.18;72.63;99215.00;104598;1254;95852;-66
2023/07/01 06:17:57;;;;;;;15.60;12.60;;;;;;;21.12;72.49;99214.94;103733;1256;107804;-66
2023/07/01 06:20:24;;;;;;;17.10;13.50;;;;;;;21.07;72.26;99212.25;103211;1256;138647;-65
2023/07/01 06:22:51;;;;;;;17.10;13.30;;;;;;;21.01;72.18;99215.63;103388;1256;111239;-66
2023/07/01 06:25:19;;;;;;;18.50;13.00;;;;;;;20.95;72.14;99219.00;103140;1257;138700;-66
2023/07/01 06:27:46;;;;;;;22.50;13.90;;;;;;;20.91;72.44;99221.13;103280;1258;97841;-66
2023/07/01 06:30:14;;;;;;;18.10;13.20;;;;;;;20.92;72.49;99222.10;103113;1257;107552;-66
2023/07/01 06:32:41;;;;;;;19.50;13.30;;;;;;;20.94;72.58;99225.98;103191;1258;139189;-67
2023/07/01 06:35:09;;;;;;;21.80;14.30;;;;;;;20.97;72.64;99225.33;103163;1258;111494;-67
2023/07/01 06:37:36;;;;;;;16.70;13.20;;;;;;;21.03;72.85;99223.41;103019;1258;138803;-67
2023/07/01 06:40:04;;;;;;;17.50;13.10;;;;;;;21.10;72.65;99220.23;103164;1258;97910;-65
2023/07/01 06:42:31;;;;;;;17.90;13.60;;;;;;;21.15;72.12;99221.77;103292;1258;106922;-66
2023/07/01 06:44:58;;;;;;;17.90;13.30;;;;;;;21.17;71.81;99220.35;103094;1257;98419;-68
2023/07/01 06:47:25;;;;;;;19.30;13.00;;;;;;;21.19;71.61;99218.58;103194;1257;110982;-68
2023/07/01 06:49:52;;;;;;;15.70;12.30;;;;;;;21.18;71.45;99219.41;103142;1255;139414;-68
2023/07/01 06:52:19;;;;;;;16.70;12.60;;;;;;;21.24;71.34;99218.33;103239;1257;97789;-66
2023/07/01 06:54:46;;;;;;;22.80;14.30;;;;;;;21.45;71.32;99217.97;103148;1254;139998;-67
2023/07/01 06:57:14;;;;;;;19.40;12.30;;;;;;;21.65;70.93;99220.67;103294;1257;98363;-66
2023/07/01 06:59:41;;;;;;;17.70;11.90;;;;;;;21.74;70.40;99223.03;103295;1254;111764;-66
2023/07/01 07:02:08;;;;;;;19.60;12.20;;;;;;;21.76;69.94;99223.33;103181;1258;139008;-66
2023/07/01 07:04:35;;;;;;;14.40;12.10;;;;;;;21.78;69.99;99224.19;103259;1258;98243;-66
2023/07/01 07:07:03;;;;;;;16.40;12.20;;;;;;;21.79;69.81;99222.60;103325;1258;138825;-66
2023/07/01 07:09:30;;;;;;;19.30;12.10;;;;;;;21.77;69.75;99221.38;103325;1256;97898;-66
2023/07/01 07:11:57;;;;;;;19.50;11.50;;;;;;;21.73;69.62;99222.06;103647;1254;111521;-66
2023/07/01 07:14:24;;;;;;;16.70;11.50;;;;;;;21.67;69.35;99228.09;103140;1258;138656;-66
2023/07/01 07:16:52;;;;;;;16.70;11.50;;;;;;;21.57;69.03;99234.90;103117;1259;97774;-66
2023/07/01 07:19:19;;;;;;;15.20;11.80;;;;;;;21.49;69.18;99232.61;103157;1254;139165;-66
2023/07/01 07:21:47;;;;;;;19.30;12.40;;;;;;;21.53;69.39;99236.29;103241;1259;97775;-66
2023/07/01 07:24:14;;;;;;;16.90;11.20;;;;;;;21.67;69.46;99232.79;103304;1256;111729;-67
2023/07/01 07:26:42;;;;;;;17.10;11.30;;;;;;;21.86;69.15;99234.08;103170;1258;138703;-66
2023/07/01 07:29:09;;;;;;;14.20;11.60;;;;;;;22.05;68.69;99231.71;103447;1259;98342;-66
2023/07/01 07:31:36;;;;;;;16.90;11.60;;;;;;;22.30;68.23;99231.29;103215;1254;140888;-66
2023/07/01 07:34:03;;;;;;;14.10;11.10;;;;;;;22.59;67.80;99232.70;103237;1259;97732;-66
2023/07/01 07:36:30;;;;;;;14.80;11.50;;;;;;;22.80;67.11;99231.81;103241;1257;111660;-66
2023/07/01 07:38:57;;;;;;;13.70;10.70;;;;;;;22.84;66.23;99230.41;103229;1260;109286;-65
2023/07/01 07:41:24;;;;;;;16.70;11.60;;;;;;;22.80;65.66;99226.73;103277;1255;98321;-66
2023/07/01 07:43:51;;;;;;;16.00;11.40;;;;;;;22.72;65.51;99231.35;103006;1261;139780;-67
2023/07/01 07:46:19;;;;;;;17.40;11.40;;;;;;;22.67;65.50;99229.75;103076;1260;97802;-69
2023/07/01 07:48:46;;;;;;;17.30;12.20;;;;;;;22.57;65.49;99230.53;102997;1256;138880;-67
2023/07/01 07:51:13;;;;;;;17.60;12.50;;;;;;;22.40;65.51;99227.85;103144;1255;108590;-67
2023/07/01 07:53:40;;;;;;;16.40;11.30;;;;;;;22.29;65.45;99229.73;103182;1256;98355;-67
2023/07/01 07:56:07;;;;;;;16.00;11.20;;;;;;;22.17;65.42;99230.02;103009;1259;138550;-67
2023/07/01 07:58:35;;;;;;;16.20;11.20;;;;;;;22.07;65.60;99229.78;103126;1260;97892;-66
2023/07/01 08:01:02;;;;;;;13.80;11.00;;;;;;;22.00;65.65;99228.31;103007;1260;138757;-67
2023/07/01 08:03:29;;;;;;;16.50;11.70;;;;;;;22.01;65.94;99230.54;103182;1260;106783;-66
2023/07/01 08:05:56;;;;;;;15.80;10.50;;;;;;;22.10;66.07;99222.80;103299;1254;97785;-67
2023/07/01 08:08:24;;;;;;;28.80;11.60;;;;;;;22.10;65.81;99223.50;103126;1256;138505;-66
2023/07/01 08:10:53;;;;;;;16.30;11.90;;;;;;;22.05;65.78;99221.64;103220;1260;97775;-67
2023/07/01 08:13:20;;;;;;;38.40;12.80;;;;;;;22.00;65.87;99223.31;103125;1256;138425;-66
2023/07/01 08:15:47;;;;;;;14.70;11.50;;;;;;;21.98;65.90;99221.03;103233;1259;107533;-66
2023/07/01 08:18:16;;;;;;;18.60;12.30;;;;;;;21.97;65.85;99220.91;103271;1260;98307;-66
2023/07/01 08:20:43;;;;;;;17.80;11.40;;;;;;;22.08;66.10;99218.70;103325;1254;139547;-66
2023/07/01 08:23:12;;;;;;;17.90;11.80;;;;;;;22.25;66.01;99222.67;103129;1254;97857;-65
2023/07/01 08:25:41;;;;;;;14.50;11.40;;;;;;;22.29;65.30;99225.13;103182;1260;138533;-66
2023/07/01 08:28:09;;;;;;;18.70;11.60;;;;;;;22.29;65.04;99224.46;103205;1260;108947;-65
2023/07/01 08:30:36;;;;;;;16.20;11.80;;;;;;;22.23;64.81;99221.52;103718;1255;99468;-66
2023/07/01 08:33:04;;;;;;;15.90;11.30;;;;;;;22.15;64.96;99220.17;103063;1257;108232;-65
2023/07/01 08:35:32;;;;;;;16.20;11.70;;;;;;;22.16;65.32;99223.80;103211;1258;97796;-65
2023/07/01 08:37:59;;;;;;;15.80;11.40;;;;;;;22.28;65.22;99224.05;103101;1260;138502;-65
2023/07/01 08:40:26;;;;;;;16.30;11.10;;;;;;;22.44;64.81;99219.84;103164;1254;107746;-66
2023/07/01 08:42:57;;;;;;;16.00;11.60;;;;;;;22.55;64.48;99219.92;103103;1260;138868;-66
2023/07/01 08:45:25;;;;;;;16.00;12.60;;;;;;;22.64;64.35;99219.84;103178;1260;109604;-65
2023/07/01 08:47:58;;;;;;;16.80;11.90;;;;;;;22.81;64.45;99219.31;103121;1257;97813;-62
2023/07/01 08:50:28;;;;;;;19.90;12.20;;;;;;;23.56;64.59;99216.70;103030;1260;138748;-65
2023/07/01 08:53:00;;;;;;;15.10;11.30;;;;;;;24.38;63.40;99211.89;103389;1260;107520;-65
2023/07/01 08:55:28;;;;;;;15.90;11.70;;;;;;;25.47;61.32;99209.58;103127;1258;138733;-65
2023/07/01 08:57:55;;;;;;;15.30;11.80;;;;;;;26.32;59.31;99205.66;103228;1255;107781;-66
2023/07/01 09:00:22;;;;;;;14.40;10.90;;;;;;;27.32;57.54;99199.90;103112;1260;97811;-66
2023/07/01 09:02:51;;;;;;;14.10;11.40;;;;;;;28.07;55.46;99197.45;103171;1259;138095;-64
2023/07/01 09:05:18;;;;;;;14.50;11.80;;;;;;;28.36;53.66;99191.11;103251;1254;106658;-64
2023/07/01 09:07:45;;;;;;;13.90;11.10;;;;;;;28.51;52.65;99190.33;103132;1260;137988;-65
2023/07/01 09:10:15;;;;;;;13.30;11.00;;;;;;;28.66;51.71;99190.27;103227;1260;107888;-64
2023/07/01 09:12:42;;;;;;;14.90;10.90;;;;;;;28.76;50.92;99193.43;103152;1260;138308;-63
2023/07/01 09:15:11;;;;;;;14.80;10.80;;;;;;;28.92;49.59;99188.62;103223;1260;111757;-63
2023/07/01 09:17:40;;;;;;;18.10;12.70;;;;;;;29.13;49.67;99189.63;103340;1260;107701;-63
2023/07/01 09:20:10;;;;;;;17.60;12.40;;;;;;;29.48;49.25;99186.10;103168;1256;138022;-63
2023/07/01 09:22:39;;;;;;;17.70;12.20;;;;;;;29.81;48.90;99185.86;103273;1254;109504;-63
2023/07/01 09:25:07;;;;;;;18.40;12.60;;;;;;;29.87;47.55;99184.77;103551;1259;138103;-63
2023/07/01 09:27:46;;;;;;;15.30;11.50;;;;;;;29.91;48.20;99189.30;103534;1258;112788;-63
2023/07/01 09:30:27;;;;;;;18.70;12.40;;;;;;;30.07;47.77;99189.98;103207;1255;109159;-66
2023/07/01 09:33:09;;;;;;;17.00;12.00;;;;;;;30.01;46.94;99187.29;103861;1254;138310;-66
2023/07/01 09:35:46;;;;;;;17.30;12.80;;;;;;;29.63;47.06;99184.47;103303;1259;106146;-67
2023/07/01 09:38:15;;;;;;;15.60;11.40;;;;;;;29.33;47.57;99186.39;103238;1261;137979;-68
2023/07/01 09:40:42;;;;;;;16.40;11.60;;;;;;;29.03;47.52;99187.60;104492;1256;111093;-68
2023/07/01 09:43:11;;;;;;;14.60;11.70;;;;;;;28.66;47.70;99185.53;103025;1258;139570;-70
2023/07/01 09:45:57;;;;;;;16.30;11.40;;;;;;;28.22;47.85;99186.02;103186;1254;97873;-73
2023/07/01 09:48:26;;;;;;;14.90;10.90;;;;;;;27.85;48.34;99191.73;103180;1259;107476;-69
2023/07/01 09:51:04;;;;;;;17.90;10.80;;;;;;;27.58;49.07;99188.80;103774;1257;97859;-65
2023/07/01 09:53:36;;;;;;;15.20;11.40;;;;;;;27.31;49.24;99186.99;103307;1258;111526;-66
2023/07/01 09:56:11;;;;;;;22.20;12.90;;;;;;;27.07;49.51;99184.64;103705;1257;138550;-68
2023/07/01 09:58:41;;;;;;;20.70;12.10;;;;;;;26.90;49.73;99181.96;103008;1255;97811;-68
2023/07/01 10:01:09;;;;;;;17.80;11.90;;;;;;;26.94;50.28;99178.36;102979;1257;137912;-70
2023/07/01 10:03:36;;;;;;;23.80;12.60;;;;;;;27.13;50.18;99178.77;103075;1260;98543;-70
2023/07/01 10:06:04;;;;;;;17.60;12.10;;;;;;;27.69;50.44;99182.08;103099;1257;111686;-71
2023/07/01 10:08:31;;;;;;;13.80;11.30;;;;;;;28.40;49.75;99176.74;102889;1260;138027;-71
2023/07/01 10:11:06;;;;;;;16.00;10.60;;;;;;;28.69;48.36;99177.50;103110;1255;97898;-75
2023/07/01 10:13:36;;;;;;;16.20;11.30;;;;;;;28.64;47.24;99174.86;103055;1254;138170;-69
2023/07/01 10:16:06;;;;;;;15.20;11.30;;;;;;;28.48;47.21;99176.75;103002;1260;97783;-68
2023/07/01 10:18:34;;;;;;;18.90;11.80;;;;;;;28.25;47.55;99173.98;103223;1258;112483;-74
2023/07/01 10:21:29;;;;;;;18.20;11.20;;;;;;;28.10;47.80;99173.73;103168;1254;107393;-70
2023/07/01 10:23:58;;;;;;;17.20;11.30;;;;;;;27.87;47.76;99175.80;103172;1261;97683;-70
2023/07/01 10:26:39;;;;;;;16.60;12.00;;;;;;;27.62;47.76;99172.23;103099;1260;137842;-70
2023/07/01 10:29:39;;;;;;;14.40;10.90;;;;;;;27.39;48.41;99172.10;103144;1254;98829;-70
2023/07/01 10:32:33;;;;;;;17.10;13.00;;;;;;;27.19;48.60;99174.70;103105;1258;137888;-70
2023/07/01 10:35:16;;;;;;;19.80;13.40;;;;;;;27.26;48.63;99165.19;103254;1254;106671;-69
2023/07/01 10:37:44;;;;;;;19.20;12.60;;;;;;;27.48;48.76;99167.31;103139;1256;137971;-69
2023/07/01 10:40:44;;;;;;;15.80;10.90;;;;;;;27.53;48.17;99163.81;103109;1255;108184;-69
2023/07/01 10:43:32;;;;;;;18.30;12.20;;;;;;;27.34;48.17;99158.09;102937;1260;138934;-70
2023/07/01 10:46:23;;;;;;;17.90;11.40;;;;;;;27.08;48.20;99155.48;103191;1254;112036;-68
2023/07/01 10:49:10;;;;;;;15.60;11.20;;;;;;;26.87;48.34;99148.98;103081;1259;139687;-70
2023/07/01 10:52:06;;;;;;;20.40;14.60;;;;;;;27.14;48.69;99141.38;103206;1258;97901;-69
2023/07/01 10:54:38;;;;;;;17.40;11.80;;;;;;;27.64;48.58;99139.86;103125;1254;107872;-69
2023/07/01 10:57:15;;;;;;;16.00;10.10;;;;;;;28.00;48.24;99129.41;103176;1254;97707;-70
2023/07/01 10:59:43;;;;;;;14.70;11.50;;;;;;;28.27;47.50;99124.66;103152;1254;111810;-70
2023/07/01 11:02:31;;;;;;;17.40;12.40;;;;;;;28.43;47.61;99123.77;102995;1254;137981;-68
2023/07/01 11:05:09;;;;;;;22.50;13.10;;;;;;;28.66;47.12;99121.55;103131;1254;97802;-68
2023/07/01 11:07:41;;;;;;;15.80;10.30;;;;;;;28.89;46.80;99113.52;103098;1254;138008;-72
2023/07/01 11:10:10;;;;;;;20.70;13.80;;;;;;;29.04;46.32;99109.38;103134;1260;97789;-66
2023/07/01 11:12:38;;;;;;;19.30;10.00;;;;;;;29.16;45.79;99104.80;103131;1260;111926;-69
2023/07/01 11:15:06;;;;;;;17.60;11.00;;;;;;;29.24;45.17;99095.34;103104;1260;107715;-69